sensor_id;sensor_type;location;lat;lon;timestamp;pressure;altitude;pressure_sealevel;temperature;humidity
3668;BME280;24099;47.102;15.440;2023-03-22T00:01:50;97048.81;;;4.84;100.00
3668;BME280;24099;47.102;15.440;2023-03-22T00:04:22;97053.06;;;4.67;100.00
3668;BME280;24099;47.102;15.440;2023-03-22T00:06:54;97047.97;;;4.66;100.00
3668;BME280;24099;47.102;15.440;2023-03-22T00:09:22;97050.69;;;4.74;100.00
3668;BME280;24099;47.102;15.440;2023-03-22T00:11:50;97046.97;;;4.31;100.00
3668;BME280;24099;47.102;15.440;2023-03-22T00:14:20;97046.47;;;4.45;100.00
3668;BME280;24099;47.102;15.440;2023-03-22T00:16:48;97048.75;;;4.58;100.00
3668;BME280;24099;47.102;15.440;2023-03-22T00:19:21;97046.91;;;4.41;100.00
3668;BME280;24099;47.102;15.440;2023-03-22T00:21:55;97046.13;;;4.58;100.00
3668;BME280;24099;47.102;15.440;2023-03-22T00:24:23;97045.31;;;4.58;100.00
3668;BME280;24099;47.102;15.440;2023-03-22T00:26:50;97041.41;;;4.62;100.00
3668;BME280;24099;47.102;15.440;2023-03-22T00:29:18;97040.00;;;4.49;100.00
3668;BME280;24099;47.102;15.440;2023-03-22T00:31:48;97033.59;;;4.62;100.00
3668;BME280;24099;47.102;15.440;2023-03-22T00:34:17;97031.13;;;4.60;100.00
3668;BME280;24099;47.102;15.440;2023-03-22T00:37:00;97028.63;;;4.68;100.00
3668;BME280;24099;47.102;15.440;2023-03-22T00:39:30;97024.91;;;4.53;100.00
3668;BME280;24099;47.102;15.440;2023-03-22T00:41:59;97018.09;;;4.42;100.00
3668;BME280;24099;47.102;15.440;2023-03-22T00:44:29;97024.94;;;4.43;100.00
3668;BME280;24099;47.102;15.440;2023-03-22T00:46:57;97016.47;;;4.41;100.00
3668;BME280;24099;47.102;15.440;2023-03-22T00:49:27;97024.63;;;4.29;100.00
3668;BME280;24099;47.102;15.440;2023-03-22T00:51:57;97020.50;;;4.36;100.00
3668;BME280;24099;47.102;15.440;2023-03-22T00:54:31;97024.06;;;4.35;100.00
3668;BME280;24099;47.102;15.440;2023-03-22T00:56:59;97028.72;;;4.13;100.00
3668;BME280;24099;47.102;15.440;2023-03-22T00:59:28;97017.75;;;4.10;100.00
3668;BME280;24099;47.102;15.440;2023-03-22T01:01:56;97026.09;;;4.13;100.00
3668;BME280;24099;47.102;15.440;2023-03-22T01:04:27;97031.63;;;4.28;100.00
3668;BME280;24099;47.102;15.440;2023-03-22T01:06:57;97030.34;;;4.14;100.00
3668;BME280;24099;47.102;15.440;2023-03-22T01:09:30;97028.03;;;4.39;100.00
3668;BME280;24099;47.102;15.440;2023-03-22T01:12:00;97020.56;;;4.44;100.00
3668;BME280;24099;47.102;15.440;2023-03-22T01:14:33;97019.97;;;4.50;100.00
3668;BME280;24099;47.102;15.440;2023-03-22T01:17:01;97021.47;;;4.35;100.00
3668;BME280;24099;47.102;15.440;2023-03-22T01:19:29;97016.41;;;4.51;100.00
3668;BME280;24099;47.102;15.440;2023-03-22T01:22:01;97016.56;;;4.67;100.00
3668;BME280;24099;47.102;15.440;2023-03-22T01:24:36;97013.50;;;4.54;100.00
3668;BME280;24099;47.102;15.440;2023-03-22T01:27:04;97021.09;;;4.65;100.00
3668;BME280;24099;47.102;15.440;2023-03-22T01:29:34;97010.53;;;4.67;100.00
3668;BME280;24099;47.102;15.440;2023-03-22T01:32:02;97007.34;;;4.55;100.00
3668;BME280;24099;47.102;15.440;2023-03-22T01:34:30;97007.34;;;4.55;100.00
3668;BME280;24099;47.102;15.440;2023-03-22T01:36:59;96996.97;;;4.63;100.00
3668;BME280;24099;47.102;15.440;2023-03-22T01:39:28;97003.38;;;4.51;100.00
3668;BME280;24099;47.102;15.440;2023-03-22T01:42:03;96995.41;;;4.35;100.00
3668;BME280;24099;47.102;15.440;2023-03-22T01:44:41;97001.06;;;4.48;100.00
3668;BME280;24099;47.102;15.440;2023-03-22T01:47:11;96999.84;;;4.42;100.00
3668;BME280;24099;47.102;15.440;2023-03-22T01:49:39;97002.72;;;4.22;100.00
3668;BME280;24099;47.102;15.440;2023-03-22T01:52:11;97006.97;;;4.23;100.00
3668;BME280;24099;47.102;15.440;2023-03-22T01:55:08;96998.88;;;4.43;100.00
3668;BME280;24099;47.102;15.440;2023-03-22T01:57:44;96998.88;;;4.43;100.00
3668;BME280;24099;47.102;15.440;2023-03-22T02:00:17;96994.19;;;4.29;100.00
3668;BME280;24099;47.102;15.440;2023-03-22T02:03:24;96997.88;;;4.36;100.00
3668;BME280;24099;47.102;15.440;2023-03-22T02:06:07;96994.88;;;4.31;100.00
3668;BME280;24099;47.102;15.440;2023-03-22T02:08:40;96987.44;;;4.36;100.00
3668;BME280;24099;47.102;15.440;2023-03-22T02:11:20;96994.91;;;4.22;100.00
3668;BME280;24099;47.102;15.440;2023-03-22T02:14:06;96996.56;;;4.23;100.00
3668;BME280;24099;47.102;15.440;2023-03-22T02:16:52;96996.81;;;4.29;100.00
3668;BME280;24099;47.102;15.440;2023-03-22T02:19:58;96997.66;;;4.20;100.00
3668;BME280;24099;47.102;15.440;2023-03-22T02:28:43;96998.19;;;4.24;100.00
3668;BME280;24099;47.102;15.440;2023-03-22T02:31:42;97002.69;;;4.04;100.00
3668;BME280;24099;47.102;15.440;2023-03-22T02:34:39;97006.38;;;4.11;100.00
3668;BME280;24099;47.102;15.440;2023-03-22T02:37:46;96998.81;;;4.18;100.00
3668;BME280;24099;47.102;15.440;2023-03-22T02:40:26;97000.28;;;4.20;100.00
3668;BME280;24099;47.102;15.440;2023-03-22T02:43:15;96998.03;;;4.07;100.00
3668;BME280;24099;47.102;15.440;2023-03-22T02:46:06;96995.97;;;4.11;100.00
3668;BME280;24099;47.102;15.440;2023-03-22T02:48:41;96995.88;;;4.21;100.00
3668;BME280;24099;47.102;15.440;2023-03-22T02:51:16;96984.94;;;3.99;100.00
3668;BME280;24099;47.102;15.440;2023-03-22T02:53:55;96989.53;;;4.05;100.00
3668;BME280;24099;47.102;15.440;2023-03-22T02:56:27;96990.91;;;4.09;100.00
3668;BME280;24099;47.102;15.440;2023-03-22T02:59:02;96990.66;;;4.03;100.00
3668;BME280;24099;47.102;15.440;2023-03-22T03:01:40;97003.88;;;3.92;100.00
3668;BME280;24099;47.102;15.440;2023-03-22T03:04:17;97006.75;;;3.89;100.00
3668;BME280;24099;47.102;15.440;2023-03-22T03:06:48;97007.09;;;4.03;100.00
3668;BME280;24099;47.102;15.440;2023-03-22T03:09:19;96998.09;;;3.98;100.00
3668;BME280;24099;47.102;15.440;2023-03-22T03:11:51;97004.69;;;3.92;100.00
3668;BME280;24099;47.102;15.440;2023-03-22T03:14:22;97009.50;;;3.87;100.00
3668;BME280;24099;47.102;15.440;2023-03-22T03:17:04;97004.41;;;3.95;100.00
3668;BME280;24099;47.102;15.440;2023-03-22T03:19:38;97004.69;;;3.92;100.00
3668;BME280;24099;47.102;15.440;2023-03-22T03:22:22;97014.44;;;3.90;100.00
3668;BME280;24099;47.102;15.440;2023-03-22T03:24:58;97003.47;;;3.87;100.00
3668;BME280;24099;47.102;15.440;2023-03-22T03:27:36;97015.66;;;3.86;100.00
3668;BME280;24099;47.102;15.440;2023-03-22T03:30:11;97012.50;;;3.92;100.00
3668;BME280;24099;47.102;15.440;2023-03-22T03:32:45;97018.97;;;3.88;100.00
3668;BME280;24099;47.102;15.440;2023-03-22T03:35:18;97018.69;;;3.81;100.00
3668;BME280;24099;47.102;15.440;2023-03-22T03:37:51;97026.38;;;3.83;100.00
3668;BME280;24099;47.102;15.440;2023-03-22T03:40:22;97019.25;;;3.85;100.00
3668;BME280;24099;47.102;15.440;2023-03-22T03:42:54;97019.53;;;3.82;100.00
3668;BME280;24099;47.102;15.440;2023-03-22T03:45:26;97015.00;;;3.84;100.00
3668;BME280;24099;47.102;15.440;2023-03-22T03:47:59;97024.28;;;3.96;100.00
3668;BME280;24099;47.102;15.440;2023-03-22T03:50:27;97016.56;;;3.77;100.00
3668;BME280;24099;47.102;15.440;2023-03-22T03:52:56;97014.16;;;3.84;100.00
3668;BME280;24099;47.102;15.440;2023-03-22T03:55:25;97022.38;;;3.89;100.00
3668;BME280;24099;47.102;15.440;2023-03-22T03:58:02;97019.34;;;3.93;100.00
3668;BME280;24099;47.102;15.440;2023-03-22T04:00:29;97011.34;;;4.04;100.00
3668;BME280;24099;47.102;15.440;2023-03-22T04:03:32;97018.97;;;3.88;100.00
3668;BME280;24099;47.102;15.440;2023-03-22T04:06:12;97017.03;;;3.90;100.00
3668;BME280;24099;47.102;15.440;2023-03-22T04:08:45;97009.97;;;4.00;100.00
3668;BME280;24099;47.102;15.440;2023-03-22T04:11:26;97019.41;;;4.11;100.00
3668;BME280;24099;47.102;15.440;2023-03-22T04:14:00;97016.66;;;4.12;100.00
3668;BME280;24099;47.102;15.440;2023-03-22T04:16:33;97014.28;;;4.19;100.00
3668;BME280;24099;47.102;15.440;2023-03-22T04:19:03;97010.69;;;4.20;100.00
3668;BME280;24099;47.102;15.440;2023-03-22T04:21:31;97016.81;;;4.29;100.00
3668;BME280;24099;47.102;15.440;2023-03-22T04:24:03;97020.16;;;4.21;100.00
3668;BME280;24099;47.102;15.440;2023-03-22T04:26:36;97024.78;;;4.27;100.00
3668;BME280;24099;47.102;15.440;2023-03-22T04:29:22;97022.41;;;4.34;100.00
3668;BME280;24099;47.102;15.440;2023-03-22T04:32:01;97021.22;;;4.28;100.00
3668;BME280;24099;47.102;15.440;2023-03-22T04:34:36;97023.97;;;4.27;100.00
3668;BME280;24099;47.102;15.440;2023-03-22T04:37:09;97018.56;;;4.38;100.00
3668;BME280;24099;47.102;15.440;2023-03-22T04:39:45;97014.66;;;4.42;100.00
3668;BME280;24099;47.102;15.440;2023-03-22T04:42:29;97022.88;;;4.47;100.00
3668;BME280;24099;47.102;15.440;2023-03-22T04:45:11;97026.00;;;4.50;100.00
3668;BME280;24099;47.102;15.440;2023-03-22T04:47:42;97025.78;;;4.62;100.00
3668;BME280;24099;47.102;15.440;2023-03-22T04:50:12;97024.53;;;4.66;100.00
3668;BME280;24099;47.102;15.440;2023-03-22T04:52:47;97017.09;;;4.71;100.00
3668;BME280;24099;47.102;15.440;2023-03-22T04:55:19;97018.34;;;4.67;100.00
3668;BME280;24099;47.102;15.440;2023-03-22T04:57:47;96996.13;;;4.80;100.00
3668;BME280;24099;47.102;15.440;2023-03-22T05:00:20;97007.72;;;4.78;100.00
3668;BME280;24099;47.102;15.440;2023-03-22T05:02:49;97003.50;;;4.85;100.00
3668;BME280;24099;47.102;15.440;2023-03-22T05:05:27;97006.09;;;5.03;100.00
3668;BME280;24099;47.102;15.440;2023-03-22T05:07:56;97009.78;;;4.92;100.00
3668;BME280;24099;47.102;15.440;2023-03-22T05:10:27;97011.41;;;4.93;100.00
3668;BME280;24099;47.102;15.440;2023-03-22T05:12:57;97012.66;;;5.07;100.00
3668;BME280;24099;47.102;15.440;2023-03-22T05:15:37;97020.31;;;5.08;100.00
3668;BME280;24099;47.102;15.440;2023-03-22T05:18:07;97017.06;;;5.06;100.00
3668;BME280;24099;47.102;15.440;2023-03-22T05:20:43;97026.50;;;5.07;100.00
3668;BME280;24099;47.102;15.440;2023-03-22T05:23:18;97020.03;;;5.11;100.00
3668;BME280;24099;47.102;15.440;2023-03-22T05:25:54;97023.84;;;5.17;100.00
3668;BME280;24099;47.102;15.440;2023-03-22T05:28:24;97021.38;;;5.15;100.00
3668;BME280;24099;47.102;15.440;2023-03-22T05:31:21;97018.19;;;5.30;100.00
3668;BME280;24099;47.102;15.440;2023-03-22T05:33:57;97020.06;;;5.37;100.00
3668;BME280;24099;47.102;15.440;2023-03-22T05:36:28;97017.09;;;5.32;100.00
3668;BME280;24099;47.102;15.440;2023-03-22T05:39:17;97016.81;;;5.43;100.00
3668;BME280;24099;47.102;15.440;2023-03-22T05:41:46;97009.66;;;5.45;100.00
3668;BME280;24099;47.102;15.440;2023-03-22T05:44:14;97010.63;;;5.44;100.00
3668;BME280;24099;47.102;15.440;2023-03-22T05:46:56;97004.66;;;5.52;100.00
3668;BME280;24099;47.102;15.440;2023-03-22T05:49:35;97019.03;;;5.56;100.00
3668;BME280;24099;47.102;15.440;2023-03-22T05:52:04;97016.59;;;5.63;100.00
3668;BME280;24099;47.102;15.440;2023-03-22T05:54:51;97026.91;;;5.90;100.00
3668;BME280;24099;47.102;15.440;2023-03-22T05:57:19;97024.50;;;6.05;100.00
3668;BME280;24099;47.102;15.440;2023-03-22T05:59:50;97024.34;;;6.06;100.00
3668;BME280;24099;47.102;15.440;2023-03-22T06:02:26;97021.44;;;6.09;100.00
3668;BME280;24099;47.102;15.440;2023-03-22T06:05:07;97021.59;;;6.08;100.00
3668;BME280;24099;47.102;15.440;2023-03-22T06:07:36;97020.16;;;6.21;100.00
3668;BME280;24099;47.102;15.440;2023-03-22T06:10:16;97024.31;;;6.40;100.00
3668;BME280;24099;47.102;15.440;2023-03-22T06:12:44;97023.47;;;6.40;100.00
3668;BME280;24099;47.102;15.440;2023-03-22T06:15:20;97019.56;;;6.36;100.00
3668;BME280;24099;47.102;15.440;2023-03-22T06:18:15;97020.41;;;6.44;100.00
3668;BME280;24099;47.102;15.440;2023-03-22T06:20:53;97028.13;;;6.62;100.00
3668;BME280;24099;47.102;15.440;2023-03-22T06:23:22;97018.78;;;6.60;100.00
3668;BME280;24099;47.102;15.440;2023-03-22T06:25:50;97021.59;;;6.66;100.00
3668;BME280;24099;47.102;15.440;2023-03-22T06:28:19;97015.41;;;6.75;100.00
3668;BME280;24099;47.102;15.440;2023-03-22T06:30:55;97023.59;;;7.05;100.00
3668;BME280;24099;47.102;15.440;2023-03-22T06:33:31;97025.06;;;6.99;100.00
3668;BME280;24099;47.102;15.440;2023-03-22T06:36:06;97016.09;;;7.18;100.00
3668;BME280;24099;47.102;15.440;2023-03-22T06:38:53;97016.88;;;7.26;100.00
3668;BME280;24099;47.102;15.440;2023-03-22T06:41:22;97013.13;;;7.37;100.00
3668;BME280;24099;47.102;15.440;2023-03-22T06:43:51;97006.88;;;7.46;100.00
3668;BME280;24099;47.102;15.440;2023-03-22T06:46:38;97013.56;;;7.57;100.00
3668;BME280;24099;47.102;15.440;2023-03-22T06:49:15;97012.56;;;7.66;100.00
3668;BME280;24099;47.102;15.440;2023-03-22T06:52:06;97007.47;;;7.73;100.00
3668;BME280;24099;47.102;15.440;2023-03-22T06:54:36;97018.56;;;7.83;100.00
3668;BME280;24099;47.102;15.440;2023-03-22T06:57:10;97005.78;;;7.88;100.00
3668;BME280;24099;47.102;15.440;2023-03-22T06:59:41;97010.19;;;7.95;100.00
3668;BME280;24099;47.102;15.440;2023-03-22T07:02:17;97003.66;;;8.22;100.00
3668;BME280;24099;47.102;15.440;2023-03-22T07:05:14;97002.25;;;8.51;100.00
3668;BME280;24099;47.102;15.440;2023-03-22T07:07:50;97001.59;;;8.49;100.00
3668;BME280;24099;47.102;15.440;2023-03-22T07:10:20;97007.84;;;8.48;100.00
3668;BME280;24099;47.102;15.440;2023-03-22T07:13:35;97008.56;;;8.64;100.00
3668;BME280;24099;47.102;15.440;2023-03-22T07:16:10;97004.09;;;8.73;100.00
3668;BME280;24099;47.102;15.440;2023-03-22T07:18:55;97005.00;;;8.80;100.00
3668;BME280;24099;47.102;15.440;2023-03-22T07:21:56;96999.97;;;8.79;100.00
3668;BME280;24099;47.102;15.440;2023-03-22T07:24:29;96995.44;;;8.87;100.00
3668;BME280;24099;47.102;15.440;2023-03-22T07:26:57;97001.00;;;8.92;100.00
3668;BME280;24099;47.102;15.440;2023-03-22T07:29:31;96995.16;;;9.05;100.00
3668;BME280;24099;47.102;15.440;2023-03-22T07:32:05;97003.78;;;9.14;100.00
3668;BME280;24099;47.102;15.440;2023-03-22T07:34:55;97002.16;;;9.13;100.00
3668;BME280;24099;47.102;15.440;2023-03-22T07:37:25;97005.97;;;9.25;100.00
3668;BME280;24099;47.102;15.440;2023-03-22T07:39:55;97001.00;;;9.30;100.00
3668;BME280;24099;47.102;15.440;2023-03-22T07:42:29;97008.53;;;9.33;100.00
3668;BME280;24099;47.102;15.440;2023-03-22T07:45:24;97008.44;;;9.41;100.00
3668;BME280;24099;47.102;15.440;2023-03-22T07:48:43;97005.41;;;9.52;100.00
3668;BME280;24099;47.102;15.440;2023-03-22T07:51:34;97006.59;;;9.64;100.00
3668;BME280;24099;47.102;15.440;2023-03-22T07:54:10;97004.69;;;9.73;100.00
3668;BME280;24099;47.102;15.440;2023-03-22T07:56:48;96991.09;;;9.84;100.00
3668;BME280;24099;47.102;15.440;2023-03-22T07:59:21;96991.38;;;9.89;100.00
3668;BME280;24099;47.102;15.440;2023-03-22T08:01:54;96983.22;;;9.99;100.00
3668;BME280;24099;47.102;15.440;2023-03-22T08:04:51;96998.25;;;10.05;100.00
3668;BME280;24099;47.102;15.440;2023-03-22T08:07:30;96996.44;;;10.06;100.00
3668;BME280;24099;47.102;15.440;2023-03-22T08:10:00;96989.63;;;10.11;100.00
3668;BME280;24099;47.102;15.440;2023-03-22T08:12:31;96992.19;;;10.19;100.00
3668;BME280;24099;47.102;15.440;2023-03-22T08:15:09;96989.72;;;10.32;100.00
3668;BME280;24099;47.102;15.440;2023-03-22T08:17:40;96994.16;;;10.32;100.00
3668;BME280;24099;47.102;15.440;2023-03-22T08:20:18;96992.69;;;10.44;100.00
3668;BME280;24099;47.102;15.440;2023-03-22T08:22:55;96997.78;;;10.67;100.00
3668;BME280;24099;47.102;15.440;2023-03-22T08:25:45;96986.47;;;10.88;100.00
3668;BME280;24099;47.102;15.440;2023-03-22T08:28:13;96990.91;;;10.87;100.00
3668;BME280;24099;47.102;15.440;2023-03-22T08:30:42;96994.66;;;10.99;100.00
3668;BME280;24099;47.102;15.440;2023-03-22T08:33:10;96992.47;;;11.03;100.00
3668;BME280;24099;47.102;15.440;2023-03-22T08:35:39;96989.34;;;11.14;100.00
3668;BME280;24099;47.102;15.440;2023-03-22T08:38:10;96989.44;;;11.27;100.00
3668;BME280;24099;47.102;15.440;2023-03-22T08:40:50;96980.88;;;11.47;100.00
3668;BME280;24099;47.102;15.440;2023-03-22T08:43:23;96980.69;;;11.48;100.00
3668;BME280;24099;47.102;15.440;2023-03-22T08:45:55;96981.78;;;11.60;100.00
3668;BME280;24099;47.102;15.440;2023-03-22T08:48:24;96970.28;;;11.68;100.00
3668;BME280;24099;47.102;15.440;2023-03-22T08:51:21;96968.69;;;11.73;100.00
3668;BME280;24099;47.102;15.440;2023-03-22T08:54:12;96969.59;;;11.87;100.00
3668;BME280;24099;47.102;15.440;2023-03-22T08:56:53;96963.97;;;11.97;100.00
3668;BME280;24099;47.102;15.440;2023-03-22T08:59:59;96960.53;;;11.96;100.00
3668;BME280;24099;47.102;15.440;2023-03-22T09:02:50;96955.94;;;12.12;100.00
3668;BME280;24099;47.102;15.440;2023-03-22T09:05:18;96955.22;;;12.37;100.00
3668;BME280;24099;47.102;15.440;2023-03-22T09:07:50;96958.44;;;12.33;100.00
3668;BME280;24099;47.102;15.440;2023-03-22T09:10:28;96954.25;;;12.52;100.00
3668;BME280;24099;47.102;15.440;2023-03-22T09:13:00;96953.50;;;12.77;100.00
3668;BME280;24099;47.102;15.440;2023-03-22T09:15:28;96947.25;;;13.18;100.00
3668;BME280;24099;47.102;15.440;2023-03-22T09:18:13;96944.38;;;13.39;100.00
3668;BME280;24099;47.102;15.440;2023-03-22T09:20:42;96948.81;;;12.99;100.00
3668;BME280;24099;47.102;15.440;2023-03-22T09:23:24;96940.69;;;13.60;100.00
3668;BME280;24099;47.102;15.440;2023-03-22T09:25:59;96937.69;;;14.08;100.00
3668;BME280;24099;47.102;15.440;2023-03-22T09:28:30;96934.53;;;14.75;100.00
3668;BME280;24099;47.102;15.440;2023-03-22T09:31:01;96932.19;;;14.92;100.00
3668;BME280;24099;47.102;15.440;2023-03-22T09:33:30;96935.19;;;15.45;99.47
3668;BME280;24099;47.102;15.440;2023-03-22T09:35:59;96929.09;;;15.45;95.83
3668;BME280;24099;47.102;15.440;2023-03-22T09:38:27;96923.03;;;15.63;92.74
3668;BME280;24099;47.102;15.440;2023-03-22T09:41:01;96912.13;;;16.07;84.36
3668;BME280;24099;47.102;15.440;2023-03-22T09:43:37;96924.97;;;15.74;83.30
3668;BME280;24099;47.102;15.440;2023-03-22T09:46:13;96938.06;;;15.44;82.15
3668;BME280;24099;47.102;15.440;2023-03-22T09:48:43;96920.69;;;16.39;82.51
3668;BME280;24099;47.102;15.440;2023-03-22T09:51:28;96919.00;;;16.45;80.56
3668;BME280;24099;47.102;15.440;2023-03-22T09:53:57;96918.69;;;15.68;82.14
3668;BME280;24099;47.102;15.440;2023-03-22T09:56:28;96911.38;;;16.67;82.53
3668;BME280;24099;47.102;15.440;2023-03-22T09:59:04;96911.69;;;17.23;77.82
3668;BME280;24099;47.102;15.440;2023-03-22T10:01:39;96911.56;;;18.12;76.17
3668;BME280;24099;47.102;15.440;2023-03-22T10:04:40;96910.56;;;17.31;74.61
3668;BME280;24099;47.102;15.440;2023-03-22T10:07:18;96901.06;;;18.34;71.73
3668;BME280;24099;47.102;15.440;2023-03-22T10:10:04;96894.56;;;16.96;75.78
3668;BME280;24099;47.102;15.440;2023-03-22T10:13:06;96881.44;;;18.11;71.20
3668;BME280;24099;47.102;15.440;2023-03-22T10:15:47;96875.44;;;18.33;70.65
3668;BME280;24099;47.102;15.440;2023-03-22T10:19:03;96874.59;;;18.44;69.36
3668;BME280;24099;47.102;15.440;2023-03-22T10:21:44;96880.88;;;18.66;70.04
3668;BME280;24099;47.102;15.440;2023-03-22T10:24:16;96887.53;;;18.52;68.19
3668;BME280;24099;47.102;15.440;2023-03-22T10:26:48;96878.47;;;19.48;66.20
3668;BME280;24099;47.102;15.440;2023-03-22T10:29:23;96889.78;;;19.39;65.83
3668;BME280;24099;47.102;15.440;2023-03-22T10:32:08;96881.56;;;18.73;66.85
3668;BME280;24099;47.102;15.440;2023-03-22T10:34:51;96881.84;;;19.44;64.64
3668;BME280;24099;47.102;15.440;2023-03-22T10:37:29;96887.78;;;19.12;64.76
3668;BME280;24099;47.102;15.440;2023-03-22T10:41:18;96882.28;;;19.36;65.33
3668;BME280;24099;47.102;15.440;2023-03-22T10:43:53;96871.50;;;20.08;64.03
3668;BME280;24099;47.102;15.440;2023-03-22T10:49:34;96875.25;;;20.07;61.17
3668;BME280;24099;47.102;15.440;2023-03-22T10:52:33;96870.31;;;20.20;62.75
3668;BME280;24099;47.102;15.440;2023-03-22T10:55:09;96873.75;;;18.55;62.14
3668;BME280;24099;47.102;15.440;2023-03-22T10:57:38;96866.41;;;20.06;60.72
3668;BME280;24099;47.102;15.440;2023-03-22T11:00:21;96860.44;;;20.21;60.90
3668;BME280;24099;47.102;15.440;2023-03-22T11:02:52;96864.00;;;20.05;59.05
3668;BME280;24099;47.102;15.440;2023-03-22T11:05:24;96852.59;;;20.36;61.31
3668;BME280;24099;47.102;15.440;2023-03-22T11:07:56;96856.94;;;20.69;57.79
3668;BME280;24099;47.102;15.440;2023-03-22T11:10:27;96865.19;;;20.14;58.97
3668;BME280;24099;47.102;15.440;2023-03-22T11:13:15;96854.06;;;19.56;60.13
3668;BME280;24099;47.102;15.440;2023-03-22T11:15:51;96847.84;;;20.38;59.02
3668;BME280;24099;47.102;15.440;2023-03-22T11:18:19;96856.09;;;20.15;59.71
3668;BME280;24099;47.102;15.440;2023-03-22T11:20:57;96854.63;;;20.78;57.68
3668;BME280;24099;47.102;15.440;2023-03-22T11:23:41;96847.00;;;20.64;57.25
3668;BME280;24099;47.102;15.440;2023-03-22T11:26:15;96842.13;;;21.20;55.76
3668;BME280;24099;47.102;15.440;2023-03-22T11:28:51;96836.22;;;20.86;56.44
3668;BME280;24099;47.102;15.440;2023-03-22T11:31:20;96835.38;;;21.13;55.30
3668;BME280;24099;47.102;15.440;2023-03-22T11:33:59;96837.09;;;20.11;55.18
3668;BME280;24099;47.102;15.440;2023-03-22T11:36:29;96830.78;;;20.44;54.56
3668;BME280;24099;47.102;15.440;2023-03-22T11:39:06;96819.00;;;21.09;51.80
3668;BME280;24099;47.102;15.440;2023-03-22T11:41:41;96810.75;;;20.79;52.67
3668;BME280;24099;47.102;15.440;2023-03-22T11:44:13;96821.44;;;20.74;53.65
3668;BME280;24099;47.102;15.440;2023-03-22T11:46:50;96807.81;;;20.00;56.44
3668;BME280;24099;47.102;15.440;2023-03-22T11:49:21;96814.50;;;20.24;55.07
3668;BME280;24099;47.102;15.440;2023-03-22T11:51:52;96809.16;;;20.24;53.65
3668;BME280;24099;47.102;15.440;2023-03-22T11:54:28;96804.94;;;20.87;53.89
3668;BME280;24099;47.102;15.440;2023-03-22T11:57:01;96804.25;;;20.38;54.31
3668;BME280;24099;47.102;15.440;2023-03-22T11:59:36;96798.78;;;21.23;50.95
3668;BME280;24099;47.102;15.440;2023-03-22T12:02:19;96799.69;;;21.02;50.76
3668;BME280;24099;47.102;15.440;2023-03-22T12:04:58;96799.28;;;20.78;51.60
3668;BME280;24099;47.102;15.440;2023-03-22T12:07:29;96797.06;;;20.43;52.34
3668;BME280;24099;47.102;15.440;2023-03-22T12:10:03;96795.44;;;20.37;52.12
3668;BME280;24099;47.102;15.440;2023-03-22T12:12:39;96798.88;;;19.45;54.02
3668;BME280;24099;47.102;15.440;2023-03-22T12:15:14;96787.81;;;20.02;52.80
3668;BME280;24099;47.102;15.440;2023-03-22T12:17:47;96789.84;;;20.17;52.92
3668;BME280;24099;47.102;15.440;2023-03-22T12:20:35;96790.72;;;19.52;52.25
3668;BME280;24099;47.102;15.440;2023-03-22T12:23:19;96779.91;;;20.12;53.11
3668;BME280;24099;47.102;15.440;2023-03-22T12:25:50;96776.72;;;19.06;53.40
3668;BME280;24099;47.102;15.440;2023-03-22T12:28:27;96772.44;;;19.87;51.17
3668;BME280;24099;47.102;15.440;2023-03-22T12:32:14;96762.28;;;20.70;53.91
3668;BME280;24099;47.102;15.440;2023-03-22T12:34:46;96761.63;;;20.53;49.70
3668;BME280;24099;47.102;15.440;2023-03-22T12:37:21;96761.94;;;20.61;49.03
3668;BME280;24099;47.102;15.440;2023-03-22T12:40:00;96749.69;;;21.08;47.98
3668;BME280;24099;47.102;15.440;2023-03-22T12:42:43;96755.28;;;21.06;49.58
3668;BME280;24099;47.102;15.440;2023-03-22T12:45:18;96748.75;;;20.87;48.98
3668;BME280;24099;47.102;15.440;2023-03-22T12:47:51;96749.00;;;20.85;49.48
3668;BME280;24099;47.102;15.440;2023-03-22T12:50:45;96737.56;;;21.37;49.06
3668;BME280;24099;47.102;15.440;2023-03-22T12:53:18;96737.56;;;21.37;47.68
3668;BME280;24099;47.102;15.440;2023-03-22T12:55:52;96742.19;;;19.82;47.11
3668;BME280;24099;47.102;15.440;2023-03-22T12:58:36;96736.94;;;20.46;47.43
3668;BME280;24099;47.102;15.440;2023-03-22T13:01:21;96729.81;;;20.93;46.52
3668;BME280;24099;47.102;15.440;2023-03-22T13:03:56;96722.19;;;21.17;47.16
3668;BME280;24099;47.102;15.440;2023-03-22T13:06:53;96729.00;;;20.93;46.64
3668;BME280;24099;47.102;15.440;2023-03-22T13:09:39;96730.03;;;20.87;46.24
3668;BME280;24099;47.102;15.440;2023-03-22T13:12:46;96724.78;;;20.33;44.82
3668;BME280;24099;47.102;15.440;2023-03-22T13:19:31;96707.56;;;20.88;43.35
3668;BME280;24099;47.102;15.440;2023-03-22T13:25:28;96703.28;;;20.87;43.72
3668;BME280;24099;47.102;15.440;2023-03-22T13:28:01;96703.06;;;20.98;40.05
3668;BME280;24099;47.102;15.440;2023-03-22T13:30:34;96707.13;;;20.64;36.76
3668;BME280;24099;47.102;15.440;2023-03-22T13:33:13;96710.72;;;20.43;39.72
3668;BME280;24099;47.102;15.440;2023-03-22T13:35:44;96703.28;;;19.91;41.55
3668;BME280;24099;47.102;15.440;2023-03-22T13:38:23;96705.16;;;20.49;41.86
3668;BME280;24099;47.102;15.440;2023-03-22T13:40:59;96705.47;;;20.26;44.29
3668;BME280;24099;47.102;15.440;2023-03-22T13:44:27;96694.88;;;20.36;43.28
3668;BME280;24099;47.102;15.440;2023-03-22T13:47:07;96692.91;;;20.26;43.11
3668;BME280;24099;47.102;15.440;2023-03-22T13:50:23;96693.16;;;20.25;43.31
3668;BME280;24099;47.102;15.440;2023-03-22T13:53:00;96694.50;;;20.54;42.69
3668;BME280;24099;47.102;15.440;2023-03-22T13:55:56;96691.53;;;20.51;42.50
3668;BME280;24099;47.102;15.440;2023-03-22T13:58:35;96685.63;;;20.17;45.60
3668;BME280;24099;47.102;15.440;2023-03-22T14:01:13;96684.78;;;20.43;43.06
3668;BME280;24099;47.102;15.440;2023-03-22T14:03:45;96673.41;;;20.26;42.23
3668;BME280;24099;47.102;15.440;2023-03-22T14:06:21;96675.91;;;20.06;43.61
3668;BME280;24099;47.102;15.440;2023-03-22T14:08:56;96668.19;;;20.09;43.14
3668;BME280;24099;47.102;15.440;2023-03-22T14:11:32;96667.13;;;20.37;43.33